createdAt,value
2022-12-31T00:03:02.819Z,14.18
2022-12-31T00:06:15.649Z,14.63
2022-12-31T00:09:18.206Z,15.13
2022-12-31T00:12:20.664Z,15.87
2022-12-31T00:15:23.228Z,15.67
2022-12-31T00:18:26.998Z,16.17
2022-12-31T00:21:31.692Z,16.85
2022-12-31T00:24:35.916Z,16.70
2022-12-31T00:27:38.427Z,14.43
2022-12-31T00:30:40.922Z,14.80
2022-12-31T00:33:44.282Z,16.75
2022-12-31T00:36:47.410Z,15.20
2022-12-31T00:39:49.901Z,16.10
2022-12-31T00:42:52.425Z,16.47
2022-12-31T00:45:54.983Z,17.47
2022-12-31T00:48:57.621Z,16.92
2022-12-31T00:52:00.188Z,18.17
2022-12-31T00:55:02.817Z,17.52
2022-12-31T00:58:05.395Z,17.43
2022-12-31T01:01:21.943Z,16.40
2022-12-31T01:04:24.667Z,16.85
2022-12-31T01:07:27.232Z,19.52
2022-12-31T01:10:48.304Z,23.95
2022-12-31T01:13:59.983Z,17.50
2022-12-31T01:17:02.508Z,20.73
2022-12-31T01:20:05.504Z,17.80
2022-12-31T01:23:10.091Z,17.98
2022-12-31T01:26:14.688Z,16.95
2022-12-31T01:29:17.321Z,15.93
2022-12-31T01:32:19.801Z,16.23
2022-12-31T01:35:22.378Z,15.93
2022-12-31T01:38:26.350Z,15.50
2022-12-31T01:41:39.016Z,16.02
2022-12-31T01:44:41.450Z,16.83
2022-12-31T01:47:50.043Z,15.80
2022-12-31T01:50:54.660Z,16.42
2022-12-31T01:53:58.731Z,16.55
2022-12-31T01:57:02.069Z,15.43
2022-12-31T02:00:06.378Z,14.93
2022-12-31T02:03:09.677Z,14.73
2022-12-31T02:06:24.120Z,14.85
2022-12-31T02:09:26.586Z,15.10
2022-12-31T02:12:29.127Z,15.25
2022-12-31T02:15:48.576Z,15.10
2022-12-31T02:19:06.637Z,15.40
2022-12-31T02:22:15.891Z,14.57
2022-12-31T02:25:44.818Z,14.88
2022-12-31T02:29:18.051Z,16.23
2022-12-31T02:32:38.940Z,16.17
2022-12-31T02:35:44.173Z,16.23
2022-12-31T02:38:48.746Z,18.63
2022-12-31T02:41:52.077Z,17.83
2022-12-31T02:44:54.688Z,17.95
2022-12-31T02:48:02.497Z,17.10
2022-12-31T02:51:13.889Z,17.80
2022-12-31T02:54:16.269Z,16.60
2022-12-31T02:57:27.291Z,17.35
2022-12-31T03:00:51.551Z,18.08
2022-12-31T03:04:14.085Z,15.93
2022-12-31T03:07:24.944Z,16.60
2022-12-31T03:10:27.518Z,16.23
2022-12-31T03:13:29.994Z,16.77
2022-12-31T03:16:32.807Z,17.25
2022-12-31T03:19:54.300Z,15.93
2022-12-31T03:22:56.872Z,16.00
2022-12-31T03:26:00.823Z,15.63
2022-12-31T03:29:03.374Z,14.95
2022-12-31T03:32:06.219Z,15.23
2022-12-31T03:35:10.001Z,14.53
2022-12-31T03:38:13.225Z,14.43
2022-12-31T03:41:15.833Z,15.02
2022-12-31T03:44:18.257Z,15.07
2022-12-31T03:47:20.743Z,14.55
2022-12-31T03:50:23.307Z,14.97
2022-12-31T03:53:27.427Z,14.87
2022-12-31T03:56:29.891Z,14.85
2022-12-31T03:59:32.475Z,15.82
2022-12-31T04:02:35.359Z,13.57
2022-12-31T04:05:37.927Z,13.97
2022-12-31T04:08:40.430Z,14.30
2022-12-31T04:11:43.177Z,14.98
2022-12-31T04:14:45.593Z,15.55
2022-12-31T04:17:49.352Z,14.85
2022-12-31T04:20:51.849Z,14.00
2022-12-31T04:23:54.348Z,15.17
2022-12-31T04:26:59.650Z,15.00
2022-12-31T04:30:08.057Z,13.80
2022-12-31T04:33:10.612Z,15.25
2022-12-31T04:36:13.124Z,14.60
2022-12-31T04:39:15.693Z,15.53
2022-12-31T04:42:18.163Z,14.27
2022-12-31T04:45:20.634Z,14.20
2022-12-31T04:48:23.076Z,15.98
2022-12-31T04:51:27.458Z,15.60
2022-12-31T04:54:29.883Z,17.10
2022-12-31T04:57:32.350Z,16.85
2022-12-31T05:00:35.507Z,15.48
2022-12-31T05:03:43.416Z,14.90
2022-12-31T05:06:45.990Z,15.23
2022-12-31T05:09:48.460Z,14.47
2022-12-31T05:12:50.905Z,13.90
2022-12-31T05:15:53.525Z,14.88
2022-12-31T05:18:55.960Z,14.35
2022-12-31T05:22:16.661Z,14.37
2022-12-31T05:25:19.129Z,15.23
2022-12-31T05:28:22.099Z,15.25
2022-12-31T05:31:24.997Z,13.95
2022-12-31T05:34:27.498Z,16.52
2022-12-31T05:37:30.735Z,15.40
2022-12-31T05:40:33.399Z,15.23
2022-12-31T05:43:35.945Z,15.57
2022-12-31T05:46:38.467Z,14.50
2022-12-31T05:49:40.907Z,16.83
2022-12-31T05:52:47.575Z,17.27
2022-12-31T05:55:50.481Z,15.30
2022-12-31T05:58:53.052Z,17.23
2022-12-31T06:01:55.601Z,16.95
2022-12-31T06:04:58.117Z,16.52
2022-12-31T06:08:00.629Z,16.90
2022-12-31T06:11:03.402Z,16.27
2022-12-31T06:14:05.922Z,15.07
2022-12-31T06:17:08.470Z,14.70
2022-12-31T06:20:13.277Z,17.63
2022-12-31T06:23:15.970Z,15.10
2022-12-31T06:26:18.480Z,16.20
2022-12-31T06:29:20.987Z,15.30
2022-12-31T06:32:23.412Z,14.68
2022-12-31T06:35:25.867Z,15.25
2022-12-31T06:38:31.419Z,15.00
2022-12-31T06:41:34.021Z,18.00
2022-12-31T06:44:36.458Z,18.40
2022-12-31T06:47:38.963Z,19.17
2022-12-31T06:50:41.700Z,16.75
2022-12-31T06:53:46.257Z,30.03
2022-12-31T06:56:51.023Z,26.80
2022-12-31T06:59:54.195Z,30.67
2022-12-31T07:03:22.945Z,27.27
2022-12-31T07:06:58.103Z,17.75
2022-12-31T07:10:12.278Z,21.10
2022-12-31T07:13:27.780Z,21.87
2022-12-31T07:16:56.312Z,22.42
2022-12-31T07:20:05.418Z,19.15
2022-12-31T07:23:08.538Z,18.73
2022-12-31T07:26:22.996Z,19.27
2022-12-31T07:30:00.123Z,20.17
2022-12-31T07:33:28.036Z,19.92
2022-12-31T07:36:40.824Z,20.88
2022-12-31T07:40:05.899Z,19.85
2022-12-31T07:43:24.149Z,20.67
2022-12-31T07:46:30.886Z,20.93
2022-12-31T07:49:34.265Z,24.40
2022-12-31T07:52:37.987Z,29.27
2022-12-31T07:55:40.542Z,24.45
2022-12-31T07:58:57.681Z,20.27
2022-12-31T08:02:35.326Z,20.03
2022-12-31T08:06:05.457Z,22.42
2022-12-31T08:09:26.549Z,25.75
2022-12-31T08:12:34.243Z,21.35
2022-12-31T08:15:40.421Z,21.67
2022-12-31T08:18:43.325Z,18.40
2022-12-31T08:22:11.695Z,17.65
2022-12-31T08:25:14.155Z,18.92
2022-12-31T08:28:44.140Z,22.08
2022-12-31T08:32:13.275Z,21.70
2022-12-31T08:35:24.585Z,17.17
2022-12-31T08:38:38.323Z,19.70
2022-12-31T08:41:49.661Z,18.50
2022-12-31T08:45:13.785Z,19.77
2022-12-31T08:48:22.283Z,21.17
2022-12-31T08:51:26.813Z,18.20
2022-12-31T08:54:30.305Z,19.23
2022-12-31T08:57:40.214Z,21.55
2022-12-31T09:00:42.843Z,20.65
2022-12-31T09:03:55.862Z,21.83
2022-12-31T09:07:01.821Z,19.63
2022-12-31T09:10:18.559Z,21.75
2022-12-31T09:13:58.508Z,20.48
2022-12-31T09:17:12.918Z,19.20
2022-12-31T09:20:42.985Z,16.93
2022-12-31T09:23:46.792Z,19.17
2022-12-31T09:27:01.100Z,21.42
2022-12-31T09:30:12.034Z,20.05
2022-12-31T09:33:32.655Z,19.33
2022-12-31T09:36:45.912Z,18.97
2022-12-31T09:39:49.089Z,20.47
2022-12-31T09:43:20.574Z,21.65
2022-12-31T09:46:58.373Z,21.25
2022-12-31T09:50:20.908Z,19.13
2022-12-31T09:53:51.019Z,20.73
2022-12-31T09:57:37.464Z,21.70
2022-12-31T10:00:59.558Z,21.15
2022-12-31T10:04:40.348Z,20.95
2022-12-31T10:07:53.929Z,21.33
2022-12-31T10:11:03.104Z,23.07
2022-12-31T10:14:24.886Z,20.50
2022-12-31T10:17:49.495Z,21.92
2022-12-31T10:21:02.582Z,21.77
2022-12-31T10:24:34.718Z,20.50
2022-12-31T10:27:52.014Z,21.23
2022-12-31T10:31:09.992Z,21.07
2022-12-31T10:34:16.689Z,21.88
2022-12-31T10:37:29.072Z,20.77
2022-12-31T10:40:37.676Z,21.02
2022-12-31T10:43:43.763Z,20.77
2022-12-31T10:47:01.289Z,25.37
2022-12-31T10:50:15.742Z,21.73
2022-12-31T10:53:33.025Z,23.13
2022-12-31T10:57:01.209Z,23.13
2022-12-31T11:00:16.943Z,22.43
2022-12-31T11:03:31.624Z,21.80
2022-12-31T11:07:11.435Z,21.10
2022-12-31T11:10:37.722Z,21.67
2022-12-31T11:13:51.488Z,21.33
2022-12-31T11:17:21.142Z,20.63
2022-12-31T11:20:40.326Z,22.37
2022-12-31T11:24:09.966Z,22.67
2022-12-31T11:27:49.701Z,21.58
2022-12-31T11:31:20.816Z,23.35
2022-12-31T11:34:29.495Z,24.23
2022-12-31T11:37:44.346Z,24.03
2022-12-31T11:41:00.041Z,22.13
2022-12-31T11:44:20.983Z,22.20
2022-12-31T11:47:29.227Z,22.13
2022-12-31T11:51:13.229Z,22.80
2022-12-31T11:54:45.924Z,23.37
2022-12-31T11:57:52.751Z,23.98
2022-12-31T12:01:17.282Z,22.20
2022-12-31T12:04:19.808Z,22.48
2022-12-31T12:07:24.233Z,21.20
2022-12-31T12:10:36.004Z,21.93
2022-12-31T12:13:39.373Z,22.45
2022-12-31T12:16:41.912Z,21.67
2022-12-31T12:19:47.276Z,21.00
2022-12-31T12:22:52.508Z,22.57
2022-12-31T12:25:54.991Z,22.47
2022-12-31T12:29:16.220Z,21.13
2022-12-31T12:32:22.656Z,20.35
2022-12-31T12:35:31.586Z,20.55
2022-12-31T12:38:34.066Z,20.63
2022-12-31T12:41:36.590Z,20.43
2022-12-31T12:44:40.259Z,22.08
2022-12-31T12:47:43.915Z,20.40
2022-12-31T12:50:49.247Z,21.17
2022-12-31T12:54:05.184Z,23.43
2022-12-31T12:57:31.905Z,22.03
2022-12-31T13:00:50.111Z,22.25
2022-12-31T13:04:32.587Z,21.55
2022-12-31T13:07:26.789Z,23.08
2022-12-31T13:10:47.045Z,22.27
2022-12-31T13:14:03.023Z,22.47
2022-12-31T13:17:26.936Z,23.90
2022-12-31T13:20:47.843Z,22.77
2022-12-31T13:24:10.228Z,22.58
2022-12-31T13:27:34.091Z,24.60
2022-12-31T13:30:42.622Z,25.40
2022-12-31T13:33:49.707Z,25.13
2022-12-31T13:36:54.320Z,25.10
2022-12-31T13:40:04.972Z,23.40
2022-12-31T13:43:25.753Z,26.20
2022-12-31T13:46:28.176Z,25.13
2022-12-31T13:50:14.257Z,26.48
2022-12-31T13:53:28.056Z,26.38
2022-12-31T13:56:36.982Z,25.67
2022-12-31T13:59:45.533Z,25.07
2022-12-31T14:03:06.471Z,24.23
2022-12-31T14:06:17.741Z,23.80
2022-12-31T14:09:24.999Z,23.40
2022-12-31T14:12:33.235Z,25.10
2022-12-31T14:15:45.260Z,29.53
2022-12-31T14:19:30.718Z,28.73
2022-12-31T14:22:49.881Z,31.80
2022-12-31T14:26:01.211Z,31.05
2022-12-31T14:29:21.056Z,27.95
2022-12-31T14:32:38.463Z,25.17
2022-12-31T14:36:00.441Z,27.30
2022-12-31T14:39:51.347Z,26.73
2022-12-31T14:43:17.784Z,25.88
2022-12-31T14:46:29.849Z,25.27
2022-12-31T14:50:04.672Z,27.37
2022-12-31T14:53:17.748Z,26.60
2022-12-31T14:56:31.382Z,26.75
2022-12-31T14:59:40.122Z,25.27
2022-12-31T15:02:50.336Z,26.60
2022-12-31T15:05:58.595Z,27.50
2022-12-31T15:09:39.757Z,24.87
2022-12-31T15:12:50.784Z,25.25
2022-12-31T15:16:11.541Z,25.17
2022-12-31T15:19:19.651Z,26.08
2022-12-31T15:22:41.000Z,27.93
2022-12-31T15:25:48.221Z,30.13
2022-12-31T15:29:01.252Z,29.35
2022-12-31T15:32:07.720Z,30.73
2022-12-31T15:35:22.016Z,29.75
2022-12-31T15:38:38.323Z,32.17
2022-12-31T15:42:36.233Z,34.83
2022-12-31T15:45:27.565Z,35.38
2022-12-31T15:48:51.639Z,36.92
2022-12-31T15:52:22.679Z,34.13
2022-12-31T15:55:38.737Z,31.73
2022-12-31T15:58:41.610Z,29.07
2022-12-31T16:01:45.743Z,32.55
2022-12-31T16:04:49.336Z,32.30
2022-12-31T16:07:56.626Z,33.85
2022-12-31T16:10:59.997Z,32.97
2022-12-31T16:14:03.687Z,33.50
2022-12-31T16:17:07.568Z,34.78
2022-12-31T16:20:25.542Z,35.08
2022-12-31T16:23:28.127Z,33.33
2022-12-31T16:26:36.683Z,34.73
2022-12-31T16:29:48.178Z,36.97
2022-12-31T16:33:03.203Z,37.00
2022-12-31T16:36:06.047Z,57.90
2022-12-31T16:39:27.308Z,43.95
2022-12-31T16:42:30.747Z,52.17
2022-12-31T16:45:35.925Z,62.87
2022-12-31T16:48:38.948Z,45.10
2022-12-31T16:51:42.072Z,42.08
2022-12-31T16:54:47.468Z,42.15
2022-12-31T16:57:57.953Z,43.07
2022-12-31T17:01:11.390Z,44.80
2022-12-31T17:04:19.025Z,59.92
2022-12-31T17:07:27.662Z,73.00
2022-12-31T17:10:36.250Z,61.75
2022-12-31T17:13:39.027Z,57.63
2022-12-31T17:16:57.743Z,58.40
2022-12-31T17:20:11.051Z,73.63
2022-12-31T17:23:23.753Z,59.08
2022-12-31T17:26:29.231Z,57.80
2022-12-31T17:29:32.516Z,53.27
2022-12-31T17:32:37.903Z,60.23
2022-12-31T17:35:42.809Z,57.53
2022-12-31T17:38:45.301Z,45.17
2022-12-31T17:41:50.695Z,49.35
2022-12-31T17:45:15.273Z,51.20
2022-12-31T17:48:19.834Z,51.63
2022-12-31T17:51:24.641Z,49.97
2022-12-31T17:54:27.271Z,51.60
2022-12-31T17:57:30.054Z,52.38
2022-12-31T18:00:36.942Z,52.80
2022-12-31T18:03:39.410Z,51.27
2022-12-31T18:06:42.039Z,53.30
2022-12-31T18:09:44.475Z,48.65
2022-12-31T18:12:48.843Z,48.72
2022-12-31T18:15:52.498Z,50.77
2022-12-31T18:18:58.770Z,50.20
2022-12-31T18:22:01.297Z,54.97
2022-12-31T18:25:04.375Z,58.08
2022-12-31T18:28:09.546Z,63.58
2022-12-31T18:31:26.826Z,54.77
2022-12-31T18:34:29.314Z,53.60
2022-12-31T18:37:33.481Z,50.15
2022-12-31T18:40:35.992Z,54.00
2022-12-31T18:43:38.471Z,62.88
2022-12-31T18:46:41.872Z,65.23
2022-12-31T18:49:48.652Z,62.53
2022-12-31T18:52:51.259Z,65.35
2022-12-31T18:55:56.552Z,65.20
2022-12-31T18:58:59.821Z,68.93
2022-12-31T19:02:02.776Z,75.60
2022-12-31T19:05:21.792Z,71.27
2022-12-31T19:08:24.573Z,72.78
2022-12-31T19:11:27.098Z,71.40
2022-12-31T19:14:29.697Z,69.40
2022-12-31T19:17:32.223Z,66.27
2022-12-31T19:20:35.767Z,67.27
2022-12-31T19:23:38.370Z,75.50
2022-12-31T19:26:43.596Z,68.88
2022-12-31T19:29:46.362Z,75.53
2022-12-31T19:32:49.075Z,67.17
2022-12-31T19:35:51.475Z,67.30
2022-12-31T19:38:53.978Z,66.72
2022-12-31T19:41:59.420Z,66.63
2022-12-31T19:45:02.372Z,65.22
2022-12-31T19:48:05.766Z,66.30
2022-12-31T19:51:11.908Z,63.53
2022-12-31T19:54:14.514Z,64.53
2022-12-31T19:57:17.033Z,69.90
2022-12-31T20:00:22.358Z,66.72
2022-12-31T20:03:25.436Z,72.00
2022-12-31T20:06:28.046Z,70.37
2022-12-31T20:09:30.514Z,71.80
2022-12-31T20:12:34.080Z,78.10
2022-12-31T20:15:39.257Z,95.57
2022-12-31T20:18:43.035Z,85.13
2022-12-31T20:21:45.869Z,75.47
2022-12-31T20:24:48.333Z,85.45
2022-12-31T20:27:54.845Z,101.63
2022-12-31T20:30:57.478Z,89.95
2022-12-31T20:34:00.039Z,70.50
2022-12-31T20:37:02.501Z,71.43
2022-12-31T20:40:05.476Z,80.85
2022-12-31T20:43:08.167Z,81.03
2022-12-31T20:46:18.125Z,77.38
2022-12-31T20:49:37.138Z,55.40
2022-12-31T20:52:44.063Z,52.03
2022-12-31T20:55:46.490Z,47.13
2022-12-31T20:58:49.270Z,45.88
2022-12-31T21:05:14.429Z,48.93
2022-12-31T21:08:17.483Z,54.17
2022-12-31T21:11:38.433Z,52.97
2022-12-31T21:14:44.711Z,51.15
2022-12-31T21:17:47.672Z,52.20
2022-12-31T21:20:52.273Z,56.77
2022-12-31T21:23:54.834Z,54.97
2022-12-31T21:26:57.530Z,64.55
2022-12-31T21:33:22.464Z,53.67
2022-12-31T21:36:24.890Z,54.20
2022-12-31T21:39:27.800Z,56.05
2022-12-31T21:42:30.332Z,53.17
2022-12-31T21:45:32.977Z,53.42
2022-12-31T21:48:35.592Z,52.47
2022-12-31T21:51:57.989Z,51.00
2022-12-31T21:55:21.216Z,49.15
2022-12-31T21:58:26.802Z,51.08
2022-12-31T22:01:48.431Z,51.88
2022-12-31T22:05:16.384Z,51.85
2022-12-31T22:08:14.033Z,53.10
2022-12-31T22:11:18.440Z,53.05
2022-12-31T22:14:20.967Z,49.75
2022-12-31T22:17:23.424Z,44.00
2022-12-31T22:20:27.601Z,50.83
2022-12-31T22:23:31.678Z,48.87
2022-12-31T22:26:34.712Z,49.08
2022-12-31T22:29:37.195Z,45.67
2022-12-31T22:32:39.647Z,88.60
2022-12-31T22:35:42.078Z,64.68
2022-12-31T22:38:45.433Z,52.13
2022-12-31T22:41:47.873Z,55.20
2022-12-31T22:44:50.306Z,58.28
2022-12-31T22:47:53.121Z,59.38
2022-12-31T22:50:57.177Z,51.53
2022-12-31T22:53:59.700Z,50.70
2022-12-31T22:57:02.209Z,61.08
2022-12-31T23:00:10.130Z,67.00
2022-12-31T23:03:13.525Z,57.27
2022-12-31T23:06:16.808Z,66.33
2022-12-31T23:09:37.651Z,69.28
2022-12-31T23:12:40.191Z,74.65
2022-12-31T23:16:04.062Z,256.63
2022-12-31T23:19:25.930Z,136.40
2022-12-31T23:22:46.830Z,127.43
2022-12-31T23:25:51.297Z,100.88
2022-12-31T23:28:53.762Z,113.18
2022-12-31T23:31:56.428Z,82.83
2022-12-31T23:35:02.171Z,71.07
2022-12-31T23:38:07.232Z,106.55
2022-12-31T23:41:14.371Z,119.10
2022-12-31T23:44:16.891Z,129.07
2022-12-31T23:47:20.254Z,130.35
2022-12-31T23:50:23.557Z,132.82
2022-12-31T23:53:26.311Z,134.38
2022-12-31T23:56:28.806Z,145.07
2022-12-31T23:59:31.411Z,170.07
